createdAt,value
2022-09-27T00:01:51.824Z,22.90
2022-09-27T00:04:22.267Z,22.90
2022-09-27T00:06:52.774Z,22.90
2022-09-27T00:09:23.243Z,23.00
2022-09-27T00:11:53.739Z,23.00
2022-09-27T00:14:24.094Z,23.00
2022-09-27T00:16:54.487Z,23.10
2022-09-27T00:19:26.079Z,23.10
2022-09-27T00:21:56.654Z,23.00
2022-09-27T00:24:27.169Z,23.00
2022-09-27T00:26:57.918Z,23.00
2022-09-27T00:29:28.400Z,23.00
2022-09-27T00:31:59.061Z,23.00
2022-09-27T00:34:29.646Z,23.00
2022-09-27T00:37:00.193Z,23.00
2022-09-27T00:39:30.609Z,22.90
2022-09-27T00:42:01.092Z,23.00
2022-09-27T00:45:02.498Z,23.00
2022-09-27T00:47:42.115Z,23.00
2022-09-27T00:50:24.401Z,23.10
2022-09-27T00:53:18.262Z,23.10
2022-09-27T00:56:01.811Z,23.00
2022-09-27T00:58:37.947Z,23.00
2022-09-27T01:01:15.702Z,23.10
2022-09-27T01:04:03.515Z,23.10
2022-09-27T01:06:34.189Z,23.10
2022-09-27T01:09:05.135Z,23.20
2022-09-27T01:11:53.916Z,23.30
2022-09-27T01:15:03.100Z,23.40
2022-09-27T01:17:45.681Z,23.40
2022-09-27T01:20:54.816Z,23.50
2022-09-27T01:24:04.563Z,23.50
2022-09-27T01:27:09.342Z,23.50
2022-09-27T01:30:01.757Z,23.50
2022-09-27T01:32:41.224Z,23.50
2022-09-27T01:35:32.222Z,23.50
2022-09-27T01:38:24.142Z,23.40
2022-09-27T01:41:07.308Z,23.50
2022-09-27T01:44:01.989Z,23.50
2022-09-27T01:46:41.846Z,23.60
2022-09-27T01:49:20.251Z,23.70
2022-09-27T01:51:59.947Z,23.80
2022-09-27T01:54:41.558Z,23.80
2022-09-27T01:57:16.033Z,23.90
2022-09-27T01:59:57.255Z,23.90
2022-09-27T02:02:31.663Z,24.00
2022-09-27T02:05:05.429Z,24.10
2022-09-27T02:07:44.947Z,24.10
2022-09-27T02:10:21.626Z,24.20
2022-09-27T02:13:08.323Z,24.20
2022-09-27T02:15:52.637Z,24.30
2022-09-27T02:18:33.056Z,24.40
2022-09-27T02:21:08.001Z,24.40
2022-09-27T02:23:51.293Z,24.50
2022-09-27T02:26:30.158Z,24.60
2022-09-27T02:29:13.679Z,24.60
2022-09-27T02:31:44.199Z,24.70
2022-09-27T02:34:25.909Z,24.70
2022-09-27T02:36:57.216Z,24.70
2022-09-27T02:39:27.679Z,24.80
2022-09-27T02:42:00.450Z,24.70
2022-09-27T02:44:31.733Z,24.80
2022-09-27T02:47:22.494Z,24.80
2022-09-27T02:50:20.469Z,24.90
2022-09-27T02:53:10.998Z,25.00
2022-09-27T02:55:59.194Z,25.00
2022-09-27T02:59:06.806Z,25.10
2022-09-27T03:02:10.971Z,25.10
2022-09-27T03:05:05.910Z,25.20
2022-09-27T03:07:37.136Z,25.30
2022-09-27T03:10:08.556Z,25.30
2022-09-27T03:12:38.838Z,25.30
2022-09-27T03:15:09.550Z,25.50
2022-09-27T03:17:39.963Z,25.60
2022-09-27T03:20:11.237Z,25.70
2022-09-27T03:22:42.747Z,25.90
2022-09-27T03:25:14.142Z,25.90
2022-09-27T03:27:44.661Z,25.80
2022-09-27T03:30:16.987Z,26.00
2022-09-27T03:32:48.607Z,26.30
2022-09-27T03:35:21.172Z,26.40
2022-09-27T03:37:51.651Z,26.50
2022-09-27T03:40:21.949Z,26.70
2022-09-27T03:42:52.704Z,26.80
2022-09-27T03:45:22.830Z,26.80
2022-09-27T03:47:52.993Z,26.90
2022-09-27T03:50:23.378Z,26.90
2022-09-27T03:52:53.534Z,27.00
2022-09-27T03:55:23.651Z,27.00
2022-09-27T03:57:53.910Z,27.00
2022-09-27T04:00:24.774Z,26.90
2022-09-27T04:02:54.875Z,27.00
2022-09-27T04:05:26.150Z,26.90
2022-09-27T04:07:56.746Z,27.00
2022-09-27T04:10:26.934Z,27.20
2022-09-27T04:15:52.615Z,27.10
2022-09-27T04:18:22.699Z,26.80
2022-09-27T04:20:52.717Z,27.00
2022-09-27T04:23:26.470Z,27.10
2022-09-27T04:25:59.220Z,27.20
2022-09-27T04:28:31.952Z,27.40
2022-09-27T04:31:02.138Z,27.40
2022-09-27T04:33:32.216Z,27.20
2022-09-27T04:36:19.455Z,27.20
2022-09-27T04:38:50.150Z,27.30
2022-09-27T04:41:20.335Z,27.40
2022-09-27T04:43:51.559Z,27.50
2022-09-27T04:46:24.601Z,27.50
2022-09-27T04:48:54.749Z,27.50
2022-09-27T04:51:24.852Z,27.50
2022-09-27T04:53:56.241Z,27.50
2022-09-27T04:56:26.365Z,27.50
2022-09-27T04:58:56.802Z,27.50
2022-09-27T05:01:27.144Z,27.40
2022-09-27T05:03:57.151Z,27.40
2022-09-27T05:06:27.540Z,27.40
2022-09-27T05:08:58.310Z,27.50
2022-09-27T05:11:29.220Z,27.70
2022-09-27T05:13:59.096Z,27.80
2022-09-27T05:16:30.881Z,27.90
2022-09-27T05:19:04.437Z,28.10
2022-09-27T05:21:34.426Z,28.20
2022-09-27T05:24:04.635Z,28.20
2022-09-27T05:26:39.545Z,28.20
2022-09-27T05:29:10.360Z,28.20
2022-09-27T05:33:12.433Z,28.20
2022-09-27T05:35:45.673Z,28.00
2022-09-27T05:38:15.807Z,28.00
2022-09-27T05:40:47.082Z,28.00
2022-09-27T05:43:17.691Z,28.00
2022-09-27T05:45:48.106Z,28.10
2022-09-27T05:48:18.191Z,28.10
2022-09-27T05:50:48.545Z,28.20
2022-09-27T05:53:18.486Z,28.40
2022-09-27T05:55:48.625Z,28.60
2022-09-27T05:58:18.913Z,28.70
2022-09-27T06:00:49.091Z,28.90
2022-09-27T06:03:22.879Z,29.00
2022-09-27T06:05:52.725Z,29.00
2022-09-27T06:08:22.870Z,29.10
2022-09-27T06:10:53.122Z,29.10
2022-09-27T06:13:23.049Z,29.10
2022-09-27T06:15:55.153Z,29.20
2022-09-27T06:18:25.282Z,29.30
2022-09-27T06:20:55.285Z,29.30
2022-09-27T06:23:26.553Z,29.40
2022-09-27T06:25:58.370Z,29.40
2022-09-27T06:28:31.349Z,29.50
2022-09-27T06:31:03.174Z,29.50
2022-09-27T06:33:33.292Z,29.60
2022-09-27T06:36:08.285Z,29.60
2022-09-27T06:38:38.878Z,29.50
2022-09-27T06:41:10.462Z,29.40
2022-09-27T06:43:41.094Z,29.20
2022-09-27T06:46:11.405Z,29.00
2022-09-27T06:48:41.362Z,29.30
2022-09-27T06:51:11.191Z,29.30
2022-09-27T06:53:41.092Z,29.20
2022-09-27T06:56:12.336Z,29.10
2022-09-27T06:58:57.687Z,29.00
2022-09-27T07:01:31.992Z,28.80
2022-09-27T07:04:02.127Z,28.80
2022-09-27T07:06:32.975Z,28.80
2022-09-27T07:09:02.750Z,28.90
2022-09-27T07:11:32.757Z,28.90
2022-09-27T07:14:03.750Z,29.00
2022-09-27T07:16:36.472Z,29.10
2022-09-27T07:19:09.551Z,29.20
2022-09-27T07:21:39.524Z,29.30
2022-09-27T07:24:09.527Z,29.40
2022-09-27T07:26:39.486Z,29.60
2022-09-27T07:29:09.380Z,29.60
2022-09-27T07:31:40.326Z,29.70
2022-09-27T07:34:10.718Z,29.60
2022-09-27T07:36:41.021Z,29.60
2022-09-27T07:39:11.681Z,29.60
2022-09-27T07:41:42.049Z,29.80
2022-09-27T07:44:12.320Z,29.80
2022-09-27T07:46:42.445Z,29.80
2022-09-27T07:49:12.500Z,29.80
2022-09-27T07:51:42.410Z,29.80
2022-09-27T07:54:12.786Z,29.80
2022-09-27T07:56:42.968Z,29.90
2022-09-27T07:59:12.918Z,29.90
2022-09-27T08:01:43.126Z,29.80
2022-09-27T08:04:13.181Z,29.90
2022-09-27T08:06:43.891Z,29.80
2022-09-27T08:09:15.220Z,29.70
2022-09-27T08:11:46.456Z,29.70
2022-09-27T08:14:16.679Z,29.70
2022-09-27T08:16:46.675Z,29.70
2022-09-27T08:19:18.234Z,29.90
2022-09-27T08:21:50.306Z,29.70
2022-09-27T08:24:20.807Z,29.70
2022-09-27T08:26:51.414Z,29.70
2022-09-27T08:29:21.771Z,29.70
2022-09-27T08:31:56.065Z,29.70
2022-09-27T08:34:26.918Z,29.80
2022-09-27T08:36:58.048Z,29.80
2022-09-27T08:39:28.534Z,29.80
2022-09-27T08:42:15.409Z,29.80
2022-09-27T08:45:15.316Z,29.90
2022-09-27T08:47:52.256Z,29.90
2022-09-27T08:50:39.953Z,29.90
2022-09-27T08:53:35.908Z,29.90
2022-09-27T08:56:10.166Z,29.70
2022-09-27T08:58:46.619Z,29.60
2022-09-27T09:01:19.893Z,29.50
2022-09-27T09:03:57.995Z,29.30
2022-09-27T09:06:38.620Z,29.20
2022-09-27T09:09:37.375Z,29.00
2022-09-27T09:12:36.391Z,28.90
2022-09-27T09:15:56.363Z,28.90
2022-09-27T09:18:57.458Z,28.60
2022-09-27T09:21:47.671Z,28.50
2022-09-27T09:24:42.739Z,28.30
2022-09-27T09:27:30.426Z,28.10
2022-09-27T09:30:25.787Z,28.20
2022-09-27T09:33:34.729Z,28.30
2022-09-27T09:36:23.038Z,28.30
2022-09-27T09:39:02.447Z,28.30
2022-09-27T09:41:40.673Z,28.20
2022-09-27T09:44:32.115Z,28.20
2022-09-27T09:47:05.589Z,28.30
2022-09-27T09:49:47.523Z,28.40
2022-09-27T09:52:21.986Z,28.60
2022-09-27T09:55:05.166Z,28.70
2022-09-27T09:57:43.293Z,28.80
2022-09-27T10:00:20.147Z,28.80
2022-09-27T10:02:52.591Z,28.90
2022-09-27T10:05:28.492Z,28.90
2022-09-27T10:08:04.884Z,28.80
2022-09-27T10:10:36.054Z,28.90
2022-09-27T10:13:07.063Z,28.80
2022-09-27T10:15:37.761Z,28.70
2022-09-27T10:18:14.699Z,28.60
2022-09-27T10:20:52.642Z,28.50
2022-09-27T10:23:27.308Z,28.50
2022-09-27T10:26:00.405Z,28.50
2022-09-27T10:28:45.538Z,28.50
2022-09-27T10:31:20.470Z,28.20
2022-09-27T10:34:07.225Z,28.20
2022-09-27T10:36:40.802Z,28.10
2022-09-27T10:39:25.822Z,28.10
2022-09-27T10:41:56.483Z,28.30
2022-09-27T10:44:34.517Z,28.30
2022-09-27T10:47:17.451Z,28.40
2022-09-27T10:49:47.921Z,28.40
2022-09-27T10:52:26.875Z,28.40
2022-09-27T10:55:04.160Z,28.30
2022-09-27T10:57:35.432Z,28.30
2022-09-27T11:00:22.869Z,28.30
2022-09-27T11:03:00.723Z,28.20
2022-09-27T11:05:40.219Z,28.20
2022-09-27T11:08:29.591Z,28.10
2022-09-27T11:11:22.086Z,28.00
2022-09-27T11:14:24.883Z,27.90
2022-09-27T11:17:22.813Z,27.90
2022-09-27T11:20:10.980Z,27.90
2022-09-27T11:23:05.257Z,27.90
2022-09-27T11:26:06.090Z,27.80
2022-09-27T11:29:05.519Z,27.80
2022-09-27T11:31:55.659Z,27.90
2022-09-27T11:34:56.196Z,27.80
2022-09-27T11:37:46.152Z,27.60
2022-09-27T11:40:36.211Z,27.60
2022-09-27T11:43:36.831Z,27.60
2022-09-27T11:46:41.648Z,27.40
2022-09-27T11:49:55.396Z,27.40
2022-09-27T11:52:48.063Z,27.30
2022-09-27T11:55:42.754Z,27.10
2022-09-27T11:58:40.002Z,27.00
2022-09-27T12:01:43.571Z,27.00
2022-09-27T12:04:42.196Z,26.90
2022-09-27T12:07:41.861Z,26.90
2022-09-27T12:10:18.884Z,26.80
2022-09-27T12:12:57.196Z,26.70
2022-09-27T12:15:33.104Z,26.60
2022-09-27T12:18:31.170Z,26.40
2022-09-27T12:21:05.649Z,26.30
2022-09-27T12:23:48.338Z,26.40
2022-09-27T12:26:34.282Z,26.30
2022-09-27T12:29:19.120Z,26.30
2022-09-27T12:32:07.692Z,26.30
2022-09-27T12:35:04.382Z,26.30
2022-09-27T12:37:41.679Z,26.20
2022-09-27T12:40:35.792Z,26.20
2022-09-27T12:43:19.106Z,26.10
2022-09-27T12:46:09.784Z,26.10
2022-09-27T12:49:11.307Z,26.10
2022-09-27T12:52:05.860Z,26.10
2022-09-27T12:55:07.557Z,26.00
2022-09-27T12:58:10.328Z,26.00
2022-09-27T13:00:59.273Z,25.90
2022-09-27T13:04:06.452Z,25.90
2022-09-27T13:07:11.607Z,26.00
2022-09-27T13:10:11.935Z,26.00
2022-09-27T13:12:49.912Z,26.00
2022-09-27T13:15:31.860Z,26.00
2022-09-27T13:18:05.701Z,25.90
2022-09-27T13:20:46.930Z,25.90
2022-09-27T13:23:54.048Z,25.80
2022-09-27T13:26:45.773Z,25.80
2022-09-27T13:29:29.711Z,25.60
2022-09-27T13:32:17.353Z,25.50
2022-09-27T13:34:59.012Z,25.60
2022-09-27T13:37:53.793Z,25.50
2022-09-27T13:40:30.050Z,25.50
2022-09-27T13:43:30.291Z,25.60
2022-09-27T13:46:04.654Z,25.60
2022-09-27T13:48:50.114Z,25.70
2022-09-27T13:51:43.651Z,25.70
2022-09-27T13:54:42.582Z,25.60
2022-09-27T13:57:44.496Z,25.60
2022-09-27T14:00:26.955Z,25.60
2022-09-27T14:03:08.970Z,25.70
2022-09-27T14:05:44.405Z,25.60
2022-09-27T14:08:29.728Z,25.50
2022-09-27T14:11:01.499Z,25.50
2022-09-27T14:13:34.975Z,25.40
2022-09-27T14:16:08.401Z,25.50
2022-09-27T14:18:46.680Z,25.40
2022-09-27T14:21:30.996Z,25.40
2022-09-27T14:24:33.326Z,25.30
2022-09-27T14:27:32.361Z,25.30
2022-09-27T14:30:10.795Z,25.30
2022-09-27T14:32:57.532Z,25.20
2022-09-27T14:35:45.450Z,25.10
2022-09-27T14:38:37.268Z,25.10
2022-09-27T14:41:11.039Z,25.10
2022-09-27T14:43:47.197Z,25.00
2022-09-27T14:46:31.463Z,24.90
2022-09-27T14:49:17.783Z,24.90
2022-09-27T14:51:55.910Z,24.80
2022-09-27T14:54:34.877Z,24.80
2022-09-27T14:57:05.373Z,24.80
2022-09-27T14:59:40.194Z,24.80
2022-09-27T15:02:22.281Z,24.80
2022-09-27T15:04:54.367Z,24.80
2022-09-27T15:07:25.610Z,24.80
2022-09-27T15:09:56.751Z,24.80
2022-09-27T15:12:29.170Z,24.80
2022-09-27T15:15:01.409Z,24.80
2022-09-27T15:17:31.765Z,24.80
2022-09-27T15:20:06.987Z,24.80
2022-09-27T15:22:44.473Z,24.80
2022-09-27T15:25:26.857Z,24.80
2022-09-27T15:27:58.557Z,24.80
2022-09-27T15:30:39.591Z,24.70
2022-09-27T15:33:22.869Z,24.70
2022-09-27T15:36:00.041Z,24.60
2022-09-27T15:38:49.630Z,24.60
2022-09-27T15:41:22.385Z,24.50
2022-09-27T15:43:55.187Z,24.50
2022-09-27T15:46:39.152Z,24.50
2022-09-27T15:49:24.413Z,24.50
2022-09-27T15:51:59.623Z,24.50
2022-09-27T15:54:33.912Z,24.40
2022-09-27T15:57:07.596Z,24.40
2022-09-27T15:59:39.409Z,24.40
2022-09-27T16:02:18.298Z,24.40
2022-09-27T16:04:48.715Z,24.40
2022-09-27T16:07:21.263Z,24.30
2022-09-27T16:09:53.976Z,24.30
2022-09-27T16:12:25.547Z,24.30
2022-09-27T16:14:56.654Z,24.40
2022-09-27T16:17:27.087Z,24.40
2022-09-27T16:19:57.550Z,24.30
2022-09-27T16:22:28.029Z,24.40
2022-09-27T16:24:58.506Z,24.30
2022-09-27T16:27:30.044Z,24.40
2022-09-27T16:30:00.806Z,24.30
2022-09-27T16:32:32.220Z,24.20
2022-09-27T16:35:02.786Z,24.20
2022-09-27T16:37:33.157Z,24.20
2022-09-27T16:40:03.816Z,24.20
2022-09-27T16:42:34.598Z,24.20
2022-09-27T16:45:10.038Z,24.20
2022-09-27T16:47:42.740Z,24.10
2022-09-27T16:50:33.540Z,24.00
2022-09-27T16:53:03.994Z,24.00
2022-09-27T16:55:34.572Z,23.90
2022-09-27T16:58:07.447Z,23.90
2022-09-27T17:00:38.217Z,23.90
2022-09-27T17:03:10.384Z,23.90
2022-09-27T17:05:41.800Z,23.90
2022-09-27T17:08:12.171Z,23.90
2022-09-27T17:10:47.880Z,23.90
2022-09-27T17:13:18.343Z,23.80
2022-09-27T17:15:49.024Z,23.80
2022-09-27T17:18:19.814Z,23.80
2022-09-27T17:20:51.028Z,23.80
2022-09-27T17:23:21.809Z,23.70
2022-09-27T17:25:52.770Z,23.70
2022-09-27T17:28:23.212Z,23.80
2022-09-27T17:30:55.574Z,23.80
2022-09-27T17:33:26.252Z,23.80
2022-09-27T17:36:06.915Z,23.80
2022-09-27T17:38:38.373Z,23.70
2022-09-27T17:41:14.710Z,23.70
2022-09-27T17:43:54.397Z,23.70
2022-09-27T17:46:29.679Z,23.70
2022-09-27T17:49:17.040Z,23.80
2022-09-27T17:51:53.211Z,23.70
2022-09-27T17:54:26.695Z,23.70
2022-09-27T17:56:58.526Z,23.70
2022-09-27T17:59:29.052Z,23.70
2022-09-27T18:01:59.668Z,23.60
2022-09-27T18:04:30.588Z,23.60
2022-09-27T18:07:01.023Z,23.60
2022-09-27T18:09:31.672Z,23.60
2022-09-27T18:12:02.100Z,23.70
2022-09-27T18:14:32.562Z,23.60
2022-09-27T18:17:03.055Z,23.60
2022-09-27T18:19:33.520Z,23.60
2022-09-27T18:22:03.996Z,23.60
2022-09-27T18:24:34.477Z,23.50
2022-09-27T18:27:06.243Z,23.50
2022-09-27T18:29:36.753Z,23.50
2022-09-27T18:32:07.242Z,23.50
2022-09-27T18:34:38.103Z,23.40
2022-09-27T18:37:08.564Z,23.40
2022-09-27T18:39:39.206Z,23.40
2022-09-27T18:42:11.006Z,23.40
2022-09-27T18:44:41.549Z,23.40
2022-09-27T18:47:18.668Z,23.40
2022-09-27T18:49:49.067Z,23.40
2022-09-27T18:52:19.558Z,23.30
2022-09-27T18:54:50.464Z,23.30
2022-09-27T18:57:21.308Z,23.30
2022-09-27T18:59:51.837Z,23.30
2022-09-27T19:02:22.450Z,23.30
2022-09-27T19:04:52.921Z,23.20
2022-09-27T19:07:23.325Z,23.20
2022-09-27T19:09:54.873Z,23.20
2022-09-27T19:12:25.263Z,23.20
2022-09-27T19:14:55.839Z,23.10
2022-09-27T19:17:26.251Z,23.10
2022-09-27T19:19:56.743Z,23.10
2022-09-27T19:22:27.171Z,23.10
2022-09-27T19:24:57.701Z,23.10
2022-09-27T19:27:28.178Z,23.20
2022-09-27T19:30:01.311Z,23.20
2022-09-27T19:32:31.717Z,23.00
2022-09-27T19:35:02.544Z,23.10
2022-09-27T19:37:33.267Z,23.00
2022-09-27T19:40:04.008Z,23.00
2022-09-27T19:42:34.359Z,23.10
2022-09-27T19:45:08.064Z,23.00
2022-09-27T19:47:42.067Z,23.00
2022-09-27T19:50:12.822Z,23.00
2022-09-27T19:52:43.588Z,23.00
2022-09-27T19:55:14.016Z,23.00
2022-09-27T19:57:44.621Z,22.90
2022-09-27T20:00:15.357Z,22.90
2022-09-27T20:02:45.827Z,22.90
2022-09-27T20:05:16.309Z,22.80
2022-09-27T20:07:48.422Z,22.80
2022-09-27T20:10:19.577Z,22.70
2022-09-27T20:12:53.052Z,22.70
2022-09-27T20:15:23.978Z,22.70
2022-09-27T20:17:55.052Z,22.70
2022-09-27T20:20:25.967Z,22.80
2022-09-27T20:22:56.413Z,22.70
2022-09-27T20:25:28.464Z,22.70
2022-09-27T20:27:58.923Z,22.60
2022-09-27T20:30:29.324Z,22.60
2022-09-27T20:33:16.447Z,22.60
2022-09-27T20:35:56.090Z,22.60
2022-09-27T20:38:26.881Z,22.60
2022-09-27T20:40:58.275Z,22.60
2022-09-27T20:43:29.321Z,22.60
2022-09-27T20:46:04.374Z,22.60
2022-09-27T20:48:35.078Z,22.60
2022-09-27T20:51:05.884Z,22.60
2022-09-27T20:53:37.085Z,22.60
2022-09-27T20:56:07.566Z,22.60
2022-09-27T20:58:37.913Z,22.60
2022-09-27T21:01:09.660Z,22.50
2022-09-27T21:03:40.250Z,22.50
2022-09-27T21:06:11.240Z,22.50
2022-09-27T21:08:42.610Z,22.50
2022-09-27T21:11:16.705Z,22.50
2022-09-27T21:13:48.670Z,22.50
2022-09-27T21:16:22.106Z,22.50
2022-09-27T21:18:54.533Z,22.40
2022-09-27T21:21:28.292Z,22.40
2022-09-27T21:24:02.113Z,22.40
2022-09-27T21:26:34.928Z,22.40
2022-09-27T21:29:11.710Z,22.50
2022-09-27T21:31:42.360Z,22.50
2022-09-27T21:34:12.888Z,22.50
2022-09-27T21:36:43.268Z,22.50
2022-09-27T21:39:14.098Z,22.50
2022-09-27T21:41:45.185Z,22.50
2022-09-27T21:44:15.583Z,22.50
2022-09-27T21:46:46.272Z,22.50
2022-09-27T21:49:16.805Z,22.40
2022-09-27T21:51:47.436Z,22.40
2022-09-27T21:54:18.805Z,22.40
2022-09-27T21:56:49.224Z,22.40
2022-09-27T21:59:20.151Z,22.40
2022-09-27T22:01:50.570Z,22.30
2022-09-27T22:04:21.033Z,22.30
2022-09-27T22:06:51.762Z,22.30
2022-09-27T22:09:22.535Z,22.30
2022-09-27T22:11:53.075Z,22.30
2022-09-27T22:14:23.549Z,22.30
2022-09-27T22:16:53.944Z,22.30
2022-09-27T22:19:24.348Z,22.30
2022-09-27T22:21:54.650Z,22.40
2022-09-27T22:24:25.693Z,22.40
2022-09-27T22:26:56.219Z,22.40
2022-09-27T22:29:27.103Z,22.50
2022-09-27T22:31:57.559Z,22.50
2022-09-27T22:34:35.040Z,22.50
2022-09-27T22:37:05.406Z,22.50
2022-09-27T22:39:36.076Z,22.50
2022-09-27T22:42:06.912Z,22.50
2022-09-27T22:44:37.652Z,22.40
2022-09-27T22:47:08.287Z,22.40
2022-09-27T22:49:38.924Z,22.40
2022-09-27T22:52:09.278Z,22.30
2022-09-27T22:54:39.674Z,22.30
2022-09-27T22:57:10.553Z,22.30
2022-09-27T22:59:40.979Z,22.20
2022-09-27T23:02:11.364Z,22.10
2022-09-27T23:04:41.861Z,22.10
2022-09-27T23:07:13.052Z,22.10
2022-09-27T23:09:43.484Z,22.10
2022-09-27T23:12:13.960Z,22.00
2022-09-27T23:14:44.396Z,22.00
2022-09-27T23:17:15.667Z,22.00
2022-09-27T23:19:46.109Z,22.10
2022-09-27T23:22:16.549Z,22.10
2022-09-27T23:24:46.986Z,22.20
2022-09-27T23:27:26.809Z,22.20
2022-09-27T23:29:57.204Z,22.20
2022-09-27T23:32:31.591Z,22.30
2022-09-27T23:35:02.226Z,22.30
2022-09-27T23:37:32.568Z,22.40
2022-09-27T23:40:02.949Z,22.50
2022-09-27T23:42:33.315Z,22.50
2022-09-27T23:45:03.802Z,22.50
2022-09-27T23:47:35.148Z,22.50
2022-09-27T23:50:05.659Z,22.50
2022-09-27T23:52:35.954Z,22.50
2022-09-27T23:55:06.557Z,22.50
2022-09-27T23:57:37.054Z,22.40
